createdAt,value
2023-04-03T00:01:17.573Z,4.05
2023-04-03T00:06:14.361Z,4.40
2023-04-03T00:11:15.614Z,2.65
2023-04-03T00:16:13.518Z,2.08
2023-04-03T00:21:14.051Z,3.80
2023-04-03T00:26:11.489Z,2.85
2023-04-03T00:31:10.728Z,3.45
2023-04-03T00:36:10.252Z,1.98
2023-04-03T00:41:07.478Z,2.35
2023-04-03T00:46:04.835Z,2.50
2023-04-03T00:51:03.288Z,2.33
2023-04-03T00:56:01.260Z,2.28
2023-04-03T01:00:59.861Z,2.78
2023-04-03T01:05:56.994Z,2.50
2023-04-03T01:10:53.777Z,2.85
2023-04-03T01:15:53.225Z,2.80
2023-04-03T01:21:37.788Z,2.83
2023-04-03T01:26:36.053Z,3.28
2023-04-03T01:31:44.538Z,2.67
2023-04-03T01:36:43.981Z,2.67
2023-04-03T01:41:41.694Z,2.85
2023-04-03T01:46:45.083Z,3.25
2023-04-03T01:51:42.456Z,2.35
2023-04-03T01:56:40.128Z,2.70
2023-04-03T02:01:38.281Z,3.78
2023-04-03T02:06:35.908Z,3.50
2023-04-03T02:11:32.804Z,4.10
2023-04-03T02:16:29.665Z,2.40
2023-04-03T02:21:26.605Z,2.67
2023-04-03T02:26:25.347Z,3.00
2023-04-03T02:31:22.682Z,5.03
2023-04-03T02:36:19.448Z,7.97
2023-04-03T02:41:22.399Z,5.35
2023-04-03T02:46:22.537Z,4.35
2023-04-03T02:51:19.366Z,3.15
2023-04-03T02:56:17.501Z,3.40
2023-04-03T03:01:15.020Z,4.63
2023-04-03T03:06:14.401Z,2.97
2023-04-03T03:11:11.985Z,2.70
2023-04-03T03:16:08.978Z,4.30
2023-04-03T03:21:06.206Z,2.95
2023-04-03T03:26:06.248Z,4.05
2023-04-03T03:31:05.312Z,5.05
2023-04-03T03:36:03.017Z,4.32
2023-04-03T03:41:00.043Z,4.15
2023-04-03T03:45:58.362Z,4.93
2023-04-03T03:50:57.123Z,5.72
2023-04-03T03:55:58.410Z,4.22
2023-04-03T04:00:57.210Z,4.80
2023-04-03T04:05:55.192Z,11.30
2023-04-03T04:10:52.248Z,7.38
2023-04-03T04:15:49.499Z,7.80
2023-04-03T04:20:47.710Z,8.75
2023-04-03T04:25:48.103Z,7.93
2023-04-03T04:30:48.425Z,7.43
2023-04-03T04:35:50.604Z,16.33
2023-04-03T04:40:51.169Z,12.63
2023-04-03T04:45:48.582Z,10.88
2023-04-03T04:50:48.952Z,17.35
2023-04-03T04:55:46.606Z,11.88
2023-04-03T05:00:44.300Z,18.30
2023-04-03T05:05:41.596Z,18.15
2023-04-03T05:10:41.187Z,19.48
2023-04-03T05:15:41.910Z,15.77
2023-04-03T05:20:43.700Z,18.00
2023-04-03T05:25:41.465Z,15.23
2023-04-03T05:30:39.731Z,11.85
2023-04-03T05:35:39.733Z,15.07
2023-04-03T05:40:45.273Z,12.55
2023-04-03T05:45:46.850Z,11.95
2023-04-03T05:50:46.771Z,15.32
2023-04-03T05:55:50.195Z,10.90
2023-04-03T06:00:47.500Z,16.77
2023-04-03T06:05:44.562Z,15.60
2023-04-03T06:10:42.359Z,8.35
2023-04-03T06:15:45.848Z,9.48
2023-04-03T06:20:44.754Z,10.38
2023-04-03T06:25:42.402Z,12.27
2023-04-03T06:30:39.356Z,12.43
2023-04-03T06:35:38.892Z,15.82
2023-04-03T06:40:36.581Z,5.18
2023-04-03T06:45:35.051Z,5.95
2023-04-03T06:50:33.649Z,3.88
2023-04-03T06:55:32.101Z,5.18
2023-04-03T07:00:31.934Z,7.18
2023-04-03T07:05:30.109Z,6.80
2023-04-03T07:10:27.270Z,2.72
2023-04-03T07:15:25.173Z,5.28
2023-04-03T07:20:22.017Z,5.15
2023-04-03T07:25:18.901Z,14.68
2023-04-03T07:30:19.254Z,6.47
2023-04-03T07:35:23.872Z,11.45
2023-04-03T07:40:21.521Z,6.82
2023-04-03T07:45:18.393Z,13.55
2023-04-03T07:50:16.381Z,7.20
2023-04-03T07:55:13.284Z,8.90
2023-04-03T08:00:12.495Z,8.43
2023-04-03T08:05:09.802Z,10.20
2023-04-03T08:10:08.315Z,10.43
2023-04-03T08:15:06.077Z,7.90
2023-04-03T08:20:03.923Z,10.05
2023-04-03T08:25:01.835Z,5.45
2023-04-03T08:29:59.317Z,6.28
2023-04-03T08:34:56.238Z,5.50
2023-04-03T08:39:53.732Z,5.35
2023-04-03T08:44:58.028Z,4.43
2023-04-03T08:50:00.246Z,5.00
2023-04-03T08:55:01.378Z,7.10
2023-04-03T09:00:01.653Z,6.72
2023-04-03T09:04:59.268Z,7.93
2023-04-03T09:09:59.311Z,15.43
2023-04-03T09:15:09.593Z,15.85
2023-04-03T09:20:26.461Z,12.82
2023-04-03T09:25:26.465Z,11.93
2023-04-03T09:30:29.878Z,12.00
2023-04-03T09:35:40.633Z,6.45
2023-04-03T09:40:47.703Z,11.57
2023-04-03T09:45:46.047Z,6.10
2023-04-03T09:50:57.040Z,7.30
2023-04-03T09:55:53.828Z,6.40
2023-04-03T10:00:57.960Z,7.43
2023-04-03T10:05:55.957Z,5.18
2023-04-03T10:11:12.269Z,5.00
2023-04-03T10:16:15.024Z,7.78
2023-04-03T10:21:27.078Z,3.50
2023-04-03T10:26:35.224Z,5.55
2023-04-03T10:31:47.192Z,3.38
2023-04-03T10:36:50.570Z,4.25
2023-04-03T10:42:09.338Z,4.85
2023-04-03T10:47:19.610Z,3.17
2023-04-03T10:52:23.218Z,4.45
2023-04-03T10:57:23.328Z,4.18
2023-04-03T11:02:31.066Z,4.10
2023-04-03T11:07:36.402Z,3.15
2023-04-03T11:12:42.671Z,3.13
2023-04-03T11:17:46.957Z,3.83
2023-04-03T11:22:48.180Z,4.57
2023-04-03T11:27:48.185Z,6.45
2023-04-03T11:33:11.287Z,3.05
2023-04-03T11:38:19.609Z,4.07
2023-04-03T11:43:23.512Z,3.92
2023-04-03T11:48:54.674Z,9.73
2023-04-03T11:53:52.874Z,4.70
2023-04-03T11:59:32.098Z,2.83
2023-04-03T12:04:34.491Z,8.68
2023-04-03T12:10:30.434Z,4.13
2023-04-03T12:15:55.788Z,9.30
2023-04-03T12:20:57.955Z,8.97
2023-04-03T12:26:10.647Z,2.75
2023-04-03T12:31:12.456Z,10.45
2023-04-03T12:36:16.444Z,3.47
2023-04-03T12:41:29.598Z,3.00
2023-04-03T12:46:38.760Z,4.43
2023-04-03T12:51:45.878Z,13.63
2023-04-03T12:56:47.985Z,12.13
2023-04-03T13:01:59.573Z,5.15
2023-04-03T13:07:00.924Z,6.35
2023-04-03T13:12:02.254Z,4.43
2023-04-03T13:17:00.965Z,5.80
2023-04-03T13:22:06.996Z,5.43
2023-04-03T13:27:07.013Z,4.07
2023-04-03T13:32:07.004Z,7.03
2023-04-03T13:37:05.419Z,10.25
2023-04-03T13:42:16.464Z,6.03
2023-04-03T13:47:20.543Z,5.88
2023-04-03T13:52:30.299Z,6.82
2023-04-03T13:57:28.428Z,6.28
2023-04-03T14:02:35.221Z,6.95
2023-04-03T14:07:38.087Z,8.35
2023-04-03T14:12:37.986Z,13.20
2023-04-03T14:18:08.806Z,11.43
2023-04-03T14:28:23.660Z,10.18
2023-04-03T14:33:27.759Z,12.82
2023-04-03T14:38:27.238Z,15.02
2023-04-03T14:43:24.523Z,12.13
2023-04-03T14:48:24.181Z,10.90
2023-04-03T14:53:37.783Z,7.60
2023-04-03T14:58:36.808Z,11.43
2023-04-03T15:03:34.378Z,7.88
2023-04-03T15:08:31.239Z,10.50
2023-04-03T15:13:27.963Z,17.33
2023-04-03T15:18:28.980Z,10.80
2023-04-03T15:23:30.293Z,9.02
2023-04-03T15:28:33.268Z,8.32
2023-04-03T15:33:31.148Z,11.13
2023-04-03T15:38:28.846Z,9.55
2023-04-03T15:43:26.129Z,11.43
2023-04-03T15:48:29.580Z,11.30
2023-04-03T15:53:26.627Z,10.55
2023-04-03T15:58:24.306Z,9.73
2023-04-03T16:03:22.609Z,10.93
2023-04-03T16:08:20.143Z,11.57
2023-04-03T16:13:16.880Z,11.50
2023-04-03T16:18:15.879Z,10.77
2023-04-03T16:23:12.749Z,10.65
2023-04-03T16:28:15.606Z,10.23
2023-04-03T16:33:15.567Z,10.77
2023-04-03T16:38:12.645Z,10.65
2023-04-03T16:43:09.793Z,11.07
2023-04-03T16:48:06.935Z,9.95
2023-04-03T16:53:04.767Z,11.10
2023-04-03T16:58:01.973Z,11.57
2023-04-03T17:02:59.218Z,12.80
2023-04-03T17:07:56.321Z,12.15
2023-04-03T17:12:55.808Z,11.18
2023-04-03T17:17:55.982Z,13.88
2023-04-03T17:22:54.207Z,12.82
2023-04-03T17:27:51.108Z,39.30
2023-04-03T17:32:49.189Z,11.23
2023-04-03T17:37:49.249Z,9.60
2023-04-03T17:42:46.188Z,7.25
2023-04-03T17:47:43.100Z,6.15
2023-04-03T17:52:40.901Z,0.90
2023-04-03T17:57:38.333Z,0.32
2023-04-03T18:02:35.610Z,1.23
2023-04-03T18:07:32.642Z,0.20
2023-04-03T18:12:30.989Z,0.70
2023-04-03T18:17:28.052Z,0.28
2023-04-03T18:22:25.395Z,1.13
2023-04-03T18:27:26.505Z,2.50
2023-04-03T18:32:24.289Z,0.88
2023-04-03T18:37:23.236Z,0.82
2023-04-03T18:42:25.313Z,0.65
2023-04-03T18:47:24.273Z,0.47
2023-04-03T18:52:24.658Z,1.77
2023-04-03T18:57:21.416Z,1.20
2023-04-03T19:02:21.382Z,2.05
2023-04-03T19:07:19.033Z,0.52
2023-04-03T19:12:16.682Z,0.82
2023-04-03T19:17:13.796Z,0.40
2023-04-03T19:22:11.634Z,0.55
2023-04-03T19:27:08.535Z,0.98
2023-04-03T19:32:12.097Z,1.52
2023-04-03T19:37:14.268Z,1.05
2023-04-03T19:42:12.255Z,1.83
2023-04-03T19:47:12.868Z,1.58
2023-04-03T19:52:09.702Z,1.85
2023-04-03T19:57:07.457Z,5.45
2023-04-03T20:02:04.416Z,2.80
2023-04-03T20:07:02.400Z,19.95
2023-04-03T20:12:00.764Z,17.80
2023-04-03T20:16:57.807Z,19.08
2023-04-03T20:21:58.398Z,18.35
2023-04-03T20:26:58.014Z,18.83
2023-04-03T20:31:55.478Z,22.60
2023-04-03T20:36:52.888Z,23.15
2023-04-03T20:41:50.239Z,22.33
2023-04-03T20:46:52.729Z,21.05
2023-04-03T20:51:50.972Z,26.73
2023-04-03T20:56:49.049Z,32.15
2023-04-03T21:01:46.993Z,29.27
2023-04-03T21:07:22.125Z,24.27
2023-04-03T21:12:55.920Z,29.38
2023-04-03T21:18:16.534Z,37.50
2023-04-03T21:23:13.693Z,40.55
2023-04-03T21:28:10.750Z,30.10
2023-04-03T21:33:09.886Z,30.77
2023-04-03T21:38:08.484Z,30.55
2023-04-03T21:43:05.440Z,28.80
2023-04-03T21:48:03.237Z,37.72
2023-04-03T21:53:01.404Z,30.05
2023-04-03T21:57:58.868Z,26.27
2023-04-03T22:03:04.142Z,14.00
2023-04-03T22:08:06.628Z,15.18
2023-04-03T22:13:03.532Z,14.02
2023-04-03T22:18:00.476Z,16.48
2023-04-03T22:22:57.605Z,15.52
2023-04-03T22:27:55.131Z,12.77
2023-04-03T22:32:51.926Z,15.57
2023-04-03T22:37:48.700Z,16.30
2023-04-03T22:42:48.355Z,19.40
2023-04-03T22:47:46.215Z,24.10
2023-04-03T22:52:43.068Z,16.17
2023-04-03T22:57:39.882Z,15.52
2023-04-03T23:02:36.823Z,14.10
2023-04-03T23:07:34.364Z,13.40
2023-04-03T23:12:36.428Z,14.85
2023-04-03T23:17:37.507Z,15.02
2023-04-03T23:22:35.746Z,11.77
2023-04-03T23:27:32.702Z,14.63
2023-04-03T23:32:30.233Z,14.23
2023-04-03T23:37:27.360Z,12.13
2023-04-03T23:42:24.822Z,17.38
2023-04-03T23:47:21.660Z,13.40
2023-04-03T23:52:19.393Z,14.27
2023-04-03T23:57:16.388Z,16.75
